sensor_id;sensor_type;location;lat;lon;timestamp;pressure;altitude;pressure_sealevel;temperature;humidity
40075;BME280;26529;51.530;11.754;2023-03-01T00:01:07;101462.59;;;19.38;44.63
40075;BME280;26529;51.530;11.754;2023-03-01T00:03:34;101459.94;;;19.38;44.50
40075;BME280;26529;51.530;11.754;2023-03-01T00:06:00;101447.56;;;19.37;44.69
40075;BME280;26529;51.530;11.754;2023-03-01T00:08:26;101446.63;;;19.38;44.88
40075;BME280;26529;51.530;11.754;2023-03-01T00:11:01;101447.63;;;19.35;44.47
40075;BME280;26529;51.530;11.754;2023-03-01T00:13:28;101452.09;;;19.35;44.52
40075;BME280;26529;51.530;11.754;2023-03-01T00:15:54;101460.09;;;19.35;44.64
40075;BME280;26529;51.530;11.754;2023-03-01T00:18:19;101459.22;;;19.34;44.72
40075;BME280;26529;51.530;11.754;2023-03-01T00:20:55;101448.63;;;19.33;44.72
40075;BME280;26529;51.530;11.754;2023-03-01T00:23:21;101448.63;;;19.33;44.90
40075;BME280;26529;51.530;11.754;2023-03-01T00:25:47;101450.44;;;19.32;44.65
40075;BME280;26529;51.530;11.754;2023-03-01T00:28:12;101452.22;;;19.32;44.72
40075;BME280;26529;51.530;11.754;2023-03-01T00:30:38;101444.41;;;19.29;44.72
40075;BME280;26529;51.530;11.754;2023-03-01T00:33:03;101443.47;;;19.30;44.65
40075;BME280;26529;51.530;11.754;2023-03-01T00:35:29;101432.84;;;19.30;44.92
40075;BME280;26529;51.530;11.754;2023-03-01T00:37:57;101440.00;;;19.28;44.64
40075;BME280;26529;51.530;11.754;2023-03-01T00:40:24;101438.22;;;19.28;44.69
40075;BME280;26529;51.530;11.754;2023-03-01T00:42:50;101433.84;;;19.27;44.67
40075;BME280;26529;51.530;11.754;2023-03-01T00:45:15;101439.16;;;19.27;44.79
40075;BME280;26529;51.530;11.754;2023-03-01T00:47:41;101438.28;;;19.27;44.63
40075;BME280;26529;51.530;11.754;2023-03-01T00:50:08;101434.84;;;19.24;44.78
40075;BME280;26529;51.530;11.754;2023-03-01T00:52:34;101426.84;;;19.24;44.81
40075;BME280;26529;51.530;11.754;2023-03-01T00:54:59;101431.28;;;19.24;44.72
40075;BME280;26529;51.530;11.754;2023-03-01T00:57:25;101428.63;;;19.24;44.72
40075;BME280;26529;51.530;11.754;2023-03-01T00:59:50;101428.72;;;19.22;44.80
40075;BME280;26529;51.530;11.754;2023-03-01T01:02:19;101429.66;;;19.21;44.73
40075;BME280;26529;51.530;11.754;2023-03-01T01:04:45;101420.75;;;19.22;44.78
40075;BME280;26529;51.530;11.754;2023-03-01T01:07:11;101417.28;;;19.20;44.62
40075;BME280;26529;51.530;11.754;2023-03-01T01:09:37;101415.44;;;19.22;44.69
40075;BME280;26529;51.530;11.754;2023-03-01T01:12:03;101414.63;;;19.20;44.71
40075;BME280;26529;51.530;11.754;2023-03-01T01:14:29;101412.84;;;19.21;44.77
40075;BME280;26529;51.530;11.754;2023-03-01T01:16:55;101407.66;;;19.18;44.76
40075;BME280;26529;51.530;11.754;2023-03-01T01:19:20;101401.47;;;19.17;44.85
40075;BME280;26529;51.530;11.754;2023-03-01T01:21:47;101399.66;;;19.18;44.89
40075;BME280;26529;51.530;11.754;2023-03-01T01:24:13;101396.16;;;19.17;44.82
40075;BME280;26529;51.530;11.754;2023-03-01T01:26:40;101394.44;;;19.16;44.88
40075;BME280;26529;51.530;11.754;2023-03-01T01:29:06;101397.09;;;19.16;44.60
40075;BME280;26529;51.530;11.754;2023-03-01T01:31:33;101392.72;;;19.15;44.80
40075;BME280;26529;51.530;11.754;2023-03-01T01:34:01;101383.81;;;19.16;44.86
40075;BME280;26529;51.530;11.754;2023-03-01T01:36:27;101376.78;;;19.15;44.84
40075;BME280;26529;51.530;11.754;2023-03-01T01:38:52;101375.03;;;19.14;44.69
40075;BME280;26529;51.530;11.754;2023-03-01T01:41:19;101379.50;;;19.14;44.82
40075;BME280;26529;51.530;11.754;2023-03-01T01:43:47;101383.94;;;19.13;44.78
40075;BME280;26529;51.530;11.754;2023-03-01T01:46:30;101370.75;;;19.11;44.88
40075;BME280;26529;51.530;11.754;2023-03-01T01:49:02;101359.22;;;19.11;44.76
40075;BME280;26529;51.530;11.754;2023-03-01T01:51:37;101353.91;;;19.11;44.89
40075;BME280;26529;51.530;11.754;2023-03-01T01:54:10;101356.56;;;19.11;44.78
40075;BME280;26529;51.530;11.754;2023-03-01T01:56:39;101358.34;;;19.10;44.86
40075;BME280;26529;51.530;11.754;2023-03-01T01:59:08;101353.13;;;19.09;44.88
40075;BME280;26529;51.530;11.754;2023-03-01T02:01:34;101348.75;;;19.08;44.88
40075;BME280;26529;51.530;11.754;2023-03-01T02:04:00;101348.75;;;19.08;44.65
40075;BME280;26529;51.530;11.754;2023-03-01T02:06:37;101347.88;;;19.07;44.80
40075;BME280;26529;51.530;11.754;2023-03-01T02:09:12;101345.28;;;19.06;44.86
40075;BME280;26529;51.530;11.754;2023-03-01T02:11:38;101346.22;;;19.05;44.86
40075;BME280;26529;51.530;11.754;2023-03-01T02:14:04;101338.25;;;19.05;44.80
40075;BME280;26529;51.530;11.754;2023-03-01T02:16:30;101341.84;;;19.04;44.94
40075;BME280;26529;51.530;11.754;2023-03-01T02:18:56;101343.56;;;19.05;44.79
40075;BME280;26529;51.530;11.754;2023-03-01T02:21:47;101351.53;;;19.05;44.92
40075;BME280;26529;51.530;11.754;2023-03-01T02:24:38;101350.75;;;19.03;44.84
40075;BME280;26529;51.530;11.754;2023-03-01T02:27:06;101349.00;;;19.02;44.79
40075;BME280;26529;51.530;11.754;2023-03-01T02:29:32;101343.69;;;19.02;44.89
40075;BME280;26529;51.530;11.754;2023-03-01T02:32:00;101346.34;;;19.02;44.85
40075;BME280;26529;51.530;11.754;2023-03-01T02:34:27;101349.00;;;19.02;44.84
40075;BME280;26529;51.530;11.754;2023-03-01T02:37:05;101339.28;;;19.01;44.84
40075;BME280;26529;51.530;11.754;2023-03-01T02:39:39;101333.13;;;19.00;44.93
40075;BME280;26529;51.530;11.754;2023-03-01T02:42:10;101336.63;;;19.01;44.77
40075;BME280;26529;51.530;11.754;2023-03-01T02:44:36;101334.91;;;18.99;44.79
40075;BME280;26529;51.530;11.754;2023-03-01T02:47:02;101335.00;;;18.98;44.85
40075;BME280;26529;51.530;11.754;2023-03-01T02:49:31;101332.34;;;18.98;44.81
40075;BME280;26529;51.530;11.754;2023-03-01T02:55:08;101346.53;;;18.97;44.88
40075;BME280;26529;51.530;11.754;2023-03-01T02:57:35;101349.28;;;18.95;44.87
40075;BME280;26529;51.530;11.754;2023-03-01T03:00:13;101349.28;;;18.95;45.00
40075;BME280;26529;51.530;11.754;2023-03-01T03:02:45;101348.41;;;18.95;44.88
40075;BME280;26529;51.530;11.754;2023-03-01T03:05:26;101354.59;;;18.95;44.82
40075;BME280;26529;51.530;11.754;2023-03-01T03:07:55;101354.59;;;18.95;44.85
40075;BME280;26529;51.530;11.754;2023-03-01T03:10:33;101352.88;;;18.94;44.87
40075;BME280;26529;51.530;11.754;2023-03-01T03:13:02;101347.56;;;18.94;44.95
40075;BME280;26529;51.530;11.754;2023-03-01T03:15:28;101356.44;;;18.93;44.94
40075;BME280;26529;51.530;11.754;2023-03-01T03:17:55;101347.69;;;18.91;44.97
40075;BME280;26529;51.530;11.754;2023-03-01T03:20:24;101351.13;;;18.93;44.95
40075;BME280;26529;51.530;11.754;2023-03-01T03:22:51;101358.31;;;18.91;45.01
40075;BME280;26529;51.530;11.754;2023-03-01T03:25:18;101353.00;;;18.91;45.01
40075;BME280;26529;51.530;11.754;2023-03-01T03:27:45;101346.03;;;18.89;44.83
40075;BME280;26529;51.530;11.754;2023-03-01T03:30:14;101349.56;;;18.89;45.02
40075;BME280;26529;51.530;11.754;2023-03-01T03:32:41;101338.00;;;18.90;44.96
40075;BME280;26529;51.530;11.754;2023-03-01T03:35:08;101330.03;;;18.90;44.87
40075;BME280;26529;51.530;11.754;2023-03-01T03:37:39;101329.22;;;18.88;44.95
40075;BME280;26529;51.530;11.754;2023-03-01T03:40:23;101326.56;;;18.88;45.26
40075;BME280;26529;51.530;11.754;2023-03-01T03:42:49;101324.81;;;18.87;44.92
40075;BME280;26529;51.530;11.754;2023-03-01T03:45:16;101323.09;;;18.86;44.98
40075;BME280;26529;51.530;11.754;2023-03-01T03:47:42;101316.94;;;18.85;44.88
40075;BME280;26529;51.530;11.754;2023-03-01T03:50:12;101316.94;;;18.85;44.96
40075;BME280;26529;51.530;11.754;2023-03-01T03:52:38;101313.34;;;18.87;44.98
40075;BME280;26529;51.530;11.754;2023-03-01T03:55:05;101317.78;;;18.86;45.03
40075;BME280;26529;51.530;11.754;2023-03-01T03:57:40;101320.53;;;18.84;44.99
40075;BME280;26529;51.530;11.754;2023-03-01T04:00:11;101314.34;;;18.84;44.99
40075;BME280;26529;51.530;11.754;2023-03-01T04:02:41;101302.84;;;18.83;44.96
40075;BME280;26529;51.530;11.754;2023-03-01T04:05:08;101308.16;;;18.83;44.92
40075;BME280;26529;51.530;11.754;2023-03-01T04:07:35;101303.88;;;18.81;44.95
40075;BME280;26529;51.530;11.754;2023-03-01T04:10:02;101300.34;;;18.80;45.01
40075;BME280;26529;51.530;11.754;2023-03-01T04:12:28;101303.00;;;18.80;45.19
40075;BME280;26529;51.530;11.754;2023-03-01T04:14:54;101302.13;;;18.80;44.96
40075;BME280;26529;51.530;11.754;2023-03-01T04:17:19;101299.41;;;18.81;45.00
40075;BME280;26529;51.530;11.754;2023-03-01T04:19:45;101297.75;;;18.79;45.10
40075;BME280;26529;51.530;11.754;2023-03-01T04:22:14;101305.72;;;18.79;44.90
40075;BME280;26529;51.530;11.754;2023-03-01T04:24:46;101303.06;;;18.79;45.03
40075;BME280;26529;51.530;11.754;2023-03-01T04:27:11;101295.25;;;18.76;44.99
40075;BME280;26529;51.530;11.754;2023-03-01T04:29:37;101289.06;;;18.75;45.05
40075;BME280;26529;51.530;11.754;2023-03-01T04:32:03;101293.38;;;18.78;44.91
40075;BME280;26529;51.530;11.754;2023-03-01T04:34:29;101293.38;;;18.78;45.17
40075;BME280;26529;51.530;11.754;2023-03-01T04:36:55;101296.03;;;18.78;44.94
40075;BME280;26529;51.530;11.754;2023-03-01T04:39:20;101299.63;;;18.77;45.09
40075;BME280;26529;51.530;11.754;2023-03-01T04:41:46;101300.63;;;18.74;44.99
40075;BME280;26529;51.530;11.754;2023-03-01T04:44:12;101307.72;;;18.74;45.08
40075;BME280;26529;51.530;11.754;2023-03-01T04:46:38;101308.59;;;18.74;45.13
40075;BME280;26529;51.530;11.754;2023-03-01T04:49:03;101308.66;;;18.73;45.02
40075;BME280;26529;51.530;11.754;2023-03-01T04:51:29;101306.00;;;18.73;45.04
40075;BME280;26529;51.530;11.754;2023-03-01T04:53:54;101311.31;;;18.73;45.06
40075;BME280;26529;51.530;11.754;2023-03-01T04:56:20;101304.22;;;18.73;44.98
40075;BME280;26529;51.530;11.754;2023-03-01T04:58:48;101305.06;;;18.74;45.08
40075;BME280;26529;51.530;11.754;2023-03-01T05:01:20;101302.56;;;18.70;44.98
40075;BME280;26529;51.530;11.754;2023-03-01T05:03:48;101305.22;;;18.70;45.13
40075;BME280;26529;51.530;11.754;2023-03-01T05:06:15;101307.88;;;18.70;45.11
40075;BME280;26529;51.530;11.754;2023-03-01T05:08:41;101299.84;;;18.72;45.06
40075;BME280;26529;51.530;11.754;2023-03-01T05:11:07;101303.44;;;18.71;45.01
40075;BME280;26529;51.530;11.754;2023-03-01T05:13:37;101294.66;;;18.69;45.08
40075;BME280;26529;51.530;11.754;2023-03-01T05:16:05;101294.75;;;18.67;45.08
40075;BME280;26529;51.530;11.754;2023-03-01T05:18:32;101304.44;;;18.68;45.08
40075;BME280;26529;51.530;11.754;2023-03-01T05:21:09;101306.16;;;18.69;45.08
40075;BME280;26529;51.530;11.754;2023-03-01T05:23:35;101297.41;;;18.67;45.10
40075;BME280;26529;51.530;11.754;2023-03-01T05:26:03;101298.25;;;18.68;45.14
40075;BME280;26529;51.530;11.754;2023-03-01T05:28:29;101297.41;;;18.67;45.04
40075;BME280;26529;51.530;11.754;2023-03-01T05:30:56;101293.88;;;18.67;45.10
40075;BME280;26529;51.530;11.754;2023-03-01T05:33:22;101300.97;;;18.66;44.96
40075;BME280;26529;51.530;11.754;2023-03-01T05:35:48;101297.47;;;18.66;45.16
40075;BME280;26529;51.530;11.754;2023-03-01T05:38:15;101298.31;;;18.66;45.03
40075;BME280;26529;51.530;11.754;2023-03-01T05:40:43;101299.25;;;18.65;45.06
40075;BME280;26529;51.530;11.754;2023-03-01T05:43:13;101304.56;;;18.65;45.09
40075;BME280;26529;51.530;11.754;2023-03-01T05:45:39;101296.66;;;18.64;45.09
40075;BME280;26529;51.530;11.754;2023-03-01T05:48:07;101299.41;;;18.62;45.14
40075;BME280;26529;51.530;11.754;2023-03-01T05:50:36;101294.09;;;18.62;45.20
40075;BME280;26529;51.530;11.754;2023-03-01T05:53:20;101302.06;;;18.62;45.18
40075;BME280;26529;51.530;11.754;2023-03-01T05:55:48;101291.44;;;18.62;45.05
40075;BME280;26529;51.530;11.754;2023-03-01T05:58:17;101299.44;;;18.61;45.18
40075;BME280;26529;51.530;11.754;2023-03-01T06:00:44;101296.78;;;18.61;45.02
40075;BME280;26529;51.530;11.754;2023-03-01T06:03:12;101297.69;;;18.61;45.14
40075;BME280;26529;51.530;11.754;2023-03-01T06:05:38;101300.06;;;18.67;44.94
40075;BME280;26529;51.530;11.754;2023-03-01T06:08:04;101297.97;;;18.74;44.86
40075;BME280;26529;51.530;11.754;2023-03-01T06:10:30;101303.00;;;18.80;44.70
40075;BME280;26529;51.530;11.754;2023-03-01T06:12:56;101303.72;;;18.84;44.85
40075;BME280;26529;51.530;11.754;2023-03-01T06:15:23;101307.97;;;18.88;44.83
40075;BME280;26529;51.530;11.754;2023-03-01T06:17:49;101318.50;;;18.90;44.78
40075;BME280;26529;51.530;11.754;2023-03-01T06:20:20;101315.78;;;18.91;44.78
40075;BME280;26529;51.530;11.754;2023-03-01T06:22:46;101317.50;;;18.92;44.81
40075;BME280;26529;51.530;11.754;2023-03-01T06:25:14;101315.66;;;18.94;44.79
40075;BME280;26529;51.530;11.754;2023-03-01T06:27:41;101322.69;;;18.95;45.07
40075;BME280;26529;51.530;11.754;2023-03-01T06:30:08;101312.06;;;18.95;45.06
40075;BME280;26529;51.530;11.754;2023-03-01T06:32:35;101313.78;;;18.96;45.07
40075;BME280;26529;51.530;11.754;2023-03-01T06:35:00;101313.78;;;18.96;45.05
40075;BME280;26529;51.530;11.754;2023-03-01T06:37:26;101313.78;;;18.96;44.92
40075;BME280;26529;51.530;11.754;2023-03-01T06:39:51;101310.19;;;18.97;45.09
40075;BME280;26529;51.530;11.754;2023-03-01T06:42:17;101314.63;;;18.97;45.24
40075;BME280;26529;51.530;11.754;2023-03-01T06:44:43;101303.88;;;19.00;45.21
40075;BME280;26529;51.530;11.754;2023-03-01T06:47:09;101311.78;;;19.02;45.10
40075;BME280;26529;51.530;11.754;2023-03-01T06:49:34;101311.78;;;19.02;45.17
40075;BME280;26529;51.530;11.754;2023-03-01T06:52:00;101313.53;;;19.03;45.09
40075;BME280;26529;51.530;11.754;2023-03-01T06:54:25;101312.53;;;19.05;45.12
40075;BME280;26529;51.530;11.754;2023-03-01T06:56:51;101310.78;;;19.04;45.09
40075;BME280;26529;51.530;11.754;2023-03-01T06:59:17;101305.56;;;19.03;45.27
40075;BME280;26529;51.530;11.754;2023-03-01T07:01:42;101313.44;;;19.04;45.13
40075;BME280;26529;51.530;11.754;2023-03-01T07:04:09;101306.28;;;19.06;44.82
40075;BME280;26529;51.530;11.754;2023-03-01T07:06:35;101309.78;;;19.07;45.15
40075;BME280;26529;51.530;11.754;2023-03-01T07:09:01;101310.66;;;19.07;45.18
40075;BME280;26529;51.530;11.754;2023-03-01T07:11:26;101308.06;;;19.06;45.09
40075;BME280;26529;51.530;11.754;2023-03-01T07:13:52;101308.88;;;19.08;45.05
40075;BME280;26529;51.530;11.754;2023-03-01T07:16:17;101304.47;;;19.07;45.17
40075;BME280;26529;51.530;11.754;2023-03-01T07:18:43;101311.53;;;19.08;45.13
40075;BME280;26529;51.530;11.754;2023-03-01T07:21:11;101310.59;;;19.09;45.10
40075;BME280;26529;51.530;11.754;2023-03-01T07:23:37;101310.59;;;19.09;45.00
40075;BME280;26529;51.530;11.754;2023-03-01T07:26:02;101307.00;;;19.10;45.05
40075;BME280;26529;51.530;11.754;2023-03-01T07:28:28;101319.06;;;19.17;44.99
40075;BME280;26529;51.530;11.754;2023-03-01T07:30:54;101310.22;;;19.17;45.00
40075;BME280;26529;51.530;11.754;2023-03-01T07:33:20;101312.03;;;19.16;45.14
40075;BME280;26529;51.530;11.754;2023-03-01T07:35:45;101308.50;;;19.16;44.93
40075;BME280;26529;51.530;11.754;2023-03-01T07:38:11;101308.56;;;19.14;45.03
40075;BME280;26529;51.530;11.754;2023-03-01T07:40:36;101310.44;;;19.12;45.09
40075;BME280;26529;51.530;11.754;2023-03-01T07:43:02;101303.41;;;19.11;45.30
40075;BME280;26529;51.530;11.754;2023-03-01T07:45:28;101299.03;;;19.10;45.13
40075;BME280;26529;51.530;11.754;2023-03-01T07:47:55;101295.44;;;19.11;44.97
40075;BME280;26529;51.530;11.754;2023-03-01T07:50:21;101296.38;;;19.10;45.21
40075;BME280;26529;51.530;11.754;2023-03-01T07:52:47;101295.44;;;19.11;45.15
40075;BME280;26529;51.530;11.754;2023-03-01T07:55:14;101295.28;;;19.14;44.95
40075;BME280;26529;51.530;11.754;2023-03-01T07:57:40;101295.13;;;19.17;45.08
40075;BME280;26529;51.530;11.754;2023-03-01T08:00:07;101302.03;;;19.21;44.84
40075;BME280;26529;51.530;11.754;2023-03-01T08:02:37;101296.56;;;19.24;44.79
40075;BME280;26529;51.530;11.754;2023-03-01T08:05:03;101297.44;;;19.25;44.64
40075;BME280;26529;51.530;11.754;2023-03-01T08:07:29;101295.56;;;19.27;44.67
40075;BME280;26529;51.530;11.754;2023-03-01T08:09:54;101304.31;;;19.29;44.74
40075;BME280;26529;51.530;11.754;2023-03-01T08:12:20;101296.28;;;19.31;44.50
40075;BME280;26529;51.530;11.754;2023-03-01T08:14:45;101287.34;;;19.32;44.78
40075;BME280;26529;51.530;11.754;2023-03-01T08:17:13;101286.41;;;19.33;44.63
40075;BME280;26529;51.530;11.754;2023-03-01T08:19:39;101288.00;;;19.37;44.67
40075;BME280;26529;51.530;11.754;2023-03-01T08:22:04;101287.06;;;19.38;44.57
40075;BME280;26529;51.530;11.754;2023-03-01T08:24:30;101285.19;;;19.40;44.47
40075;BME280;26529;51.530;11.754;2023-03-01T08:26:56;101282.47;;;19.42;44.34
40075;BME280;26529;51.530;11.754;2023-03-01T08:29:21;101279.72;;;19.43;44.54
40075;BME280;26529;51.530;11.754;2023-03-01T08:31:47;101279.72;;;19.43;44.49
40075;BME280;26529;51.530;11.754;2023-03-01T08:34:14;101288.50;;;19.45;44.25
40075;BME280;26529;51.530;11.754;2023-03-01T08:36:43;101281.28;;;19.47;44.33
40075;BME280;26529;51.530;11.754;2023-03-01T08:39:10;101284.81;;;19.48;44.36
40075;BME280;26529;51.530;11.754;2023-03-01T08:41:37;101279.44;;;19.49;44.28
40075;BME280;26529;51.530;11.754;2023-03-01T08:44:03;101281.16;;;19.50;44.27
40075;BME280;26529;51.530;11.754;2023-03-01T08:46:32;101279.28;;;19.52;44.22
40075;BME280;26529;51.530;11.754;2023-03-01T08:48:57;101277.38;;;19.55;44.29
40075;BME280;26529;51.530;11.754;2023-03-01T08:51:24;101275.53;;;19.57;44.11
40075;BME280;26529;51.530;11.754;2023-03-01T08:53:50;101265.72;;;19.57;44.27
40075;BME280;26529;51.530;11.754;2023-03-01T08:56:16;101260.97;;;19.64;44.11
40075;BME280;26529;51.530;11.754;2023-03-01T08:58:47;101264.41;;;19.66;44.15
40075;BME280;26529;51.530;11.754;2023-03-01T09:01:18;101265.19;;;19.68;44.11
40075;BME280;26529;51.530;11.754;2023-03-01T09:03:44;101267.84;;;19.68;44.04
40075;BME280;26529;51.530;11.754;2023-03-01T09:06:10;101258.97;;;19.69;43.81
40075;BME280;26529;51.530;11.754;2023-03-01T09:08:38;101252.53;;;19.73;43.96
40075;BME280;26529;51.530;11.754;2023-03-01T09:11:06;101250.56;;;19.77;43.85
40075;BME280;26529;51.530;11.754;2023-03-01T09:13:33;101257.53;;;19.79;44.02
40075;BME280;26529;51.530;11.754;2023-03-01T09:16:01;101253.88;;;19.82;44.04
40075;BME280;26529;51.530;11.754;2023-03-01T09:18:27;101244.69;;;19.88;43.92
40075;BME280;26529;51.530;11.754;2023-03-01T09:21:00;101245.63;;;19.87;43.76
40075;BME280;26529;51.530;11.754;2023-03-01T09:23:26;101241.13;;;19.89;43.64
40075;BME280;26529;51.530;11.754;2023-03-01T09:25:52;101241.03;;;19.90;44.17
40075;BME280;26529;51.530;11.754;2023-03-01T09:28:18;101239.22;;;19.91;43.73
40075;BME280;26529;51.530;11.754;2023-03-01T09:30:43;101241.72;;;19.94;43.76
40075;BME280;26529;51.530;11.754;2023-03-01T09:33:09;101246.13;;;19.95;43.64
40075;BME280;26529;51.530;11.754;2023-03-01T09:35:40;101244.34;;;19.96;43.67
40075;BME280;26529;51.530;11.754;2023-03-01T09:38:11;101242.56;;;19.96;43.70
40075;BME280;26529;51.530;11.754;2023-03-01T09:40:42;101232.69;;;19.98;43.65
40075;BME280;26529;51.530;11.754;2023-03-01T09:46:03;101237.81;;;20.01;43.70
40075;BME280;26529;51.530;11.754;2023-03-01T09:48:37;101230.66;;;20.03;43.68
40075;BME280;26529;51.530;11.754;2023-03-01T09:51:09;101232.38;;;20.04;43.53
40075;BME280;26529;51.530;11.754;2023-03-01T09:53:37;101235.78;;;20.06;43.36
40075;BME280;26529;51.530;11.754;2023-03-01T09:56:46;101235.72;;;20.08;43.79
40075;BME280;26529;51.530;11.754;2023-03-01T09:59:37;101228.56;;;20.09;43.47
40075;BME280;26529;51.530;11.754;2023-03-01T10:02:25;101230.66;;;20.03;43.54
40075;BME280;26529;51.530;11.754;2023-03-01T10:10:48;101226.34;;;20.01;43.78
40075;BME280;26529;51.530;11.754;2023-03-01T10:13:28;101216.53;;;20.01;43.69
40075;BME280;26529;51.530;11.754;2023-03-01T10:16:02;101227.19;;;20.01;43.87
40075;BME280;26529;51.530;11.754;2023-03-01T10:18:31;101225.31;;;20.03;43.74
40075;BME280;26529;51.530;11.754;2023-03-01T10:21:01;101228.75;;;20.05;43.71
40075;BME280;26529;51.530;11.754;2023-03-01T10:23:31;101229.53;;;20.08;43.41
40075;BME280;26529;51.530;11.754;2023-03-01T10:26:09;101226.78;;;20.09;43.57
40075;BME280;26529;51.530;11.754;2023-03-01T10:29:04;101228.44;;;20.12;43.38
40075;BME280;26529;51.530;11.754;2023-03-01T10:34:40;101212.28;;;20.15;43.50
40075;BME280;26529;51.530;11.754;2023-03-01T10:37:15;101199.78;;;20.17;43.48
40075;BME280;26529;51.530;11.754;2023-03-01T10:40:02;101203.13;;;20.20;43.50
40075;BME280;26529;51.530;11.754;2023-03-01T10:42:53;101192.47;;;20.20;43.54
40075;BME280;26529;51.530;11.754;2023-03-01T10:48:23;101198.41;;;20.26;43.28
40075;BME280;26529;51.530;11.754;2023-03-01T10:53:25;101192.03;;;20.28;43.36
40075;BME280;26529;51.530;11.754;2023-03-01T10:56:09;101189.22;;;20.31;43.22
40075;BME280;26529;51.530;11.754;2023-03-01T10:58:37;101187.34;;;20.33;43.38
40075;BME280;26529;51.530;11.754;2023-03-01T11:03:41;101180.03;;;20.37;43.21
40075;BME280;26529;51.530;11.754;2023-03-01T11:08:44;101179.88;;;20.40;43.03
40075;BME280;26529;51.530;11.754;2023-03-01T11:16:37;101171.63;;;20.45;42.83
40075;BME280;26529;51.530;11.754;2023-03-01T11:21:37;101169.75;;;20.47;42.89
40075;BME280;26529;51.530;11.754;2023-03-01T11:24:04;101169.75;;;20.47;43.07
40075;BME280;26529;51.530;11.754;2023-03-01T11:26:36;101175.88;;;20.49;42.88
40075;BME280;26529;51.530;11.754;2023-03-01T11:29:07;101182.91;;;20.50;42.98
40075;BME280;26529;51.530;11.754;2023-03-01T11:31:37;101181.78;;;20.54;43.18
40075;BME280;26529;51.530;11.754;2023-03-01T11:34:15;101171.91;;;20.56;43.17
40075;BME280;26529;51.530;11.754;2023-03-01T11:36:54;101185.03;;;20.59;43.10
40075;BME280;26529;51.530;11.754;2023-03-01T11:39:37;101179.66;;;20.61;43.06
40075;BME280;26529;51.530;11.754;2023-03-01T11:42:06;101175.94;;;20.64;43.17
40075;BME280;26529;51.530;11.754;2023-03-01T11:44:34;101179.38;;;20.66;43.16
40075;BME280;26529;51.530;11.754;2023-03-01T11:50:20;101164.84;;;20.71;43.50
40075;BME280;26529;51.530;11.754;2023-03-01T11:58:52;101153.94;;;20.76;43.58
40075;BME280;26529;51.530;11.754;2023-03-01T12:01:35;101146.72;;;20.78;43.69
40075;BME280;26529;51.530;11.754;2023-03-01T12:04:34;101144.81;;;20.80;43.80
40075;BME280;26529;51.530;11.754;2023-03-01T12:07:10;101136.81;;;20.80;43.77
40075;BME280;26529;51.530;11.754;2023-03-01T12:15:18;101142.78;;;20.85;43.89
40075;BME280;26529;51.530;11.754;2023-03-01T12:20:44;101139.00;;;20.90;43.86
40075;BME280;26529;51.530;11.754;2023-03-01T12:23:34;101127.41;;;20.91;43.81
40075;BME280;26529;51.530;11.754;2023-03-01T12:26:10;101122.81;;;20.93;43.77
40075;BME280;26529;51.530;11.754;2023-03-01T12:29:07;101113.03;;;20.93;43.80
40075;BME280;26529;51.530;11.754;2023-03-01T12:31:50;101117.31;;;20.96;43.60
40075;BME280;26529;51.530;11.754;2023-03-01T12:45:50;101093.31;;;20.96;43.89
40075;BME280;26529;51.530;11.754;2023-03-01T12:50:51;101081.03;;;20.93;43.71
40075;BME280;26529;51.530;11.754;2023-03-01T12:53:26;101074.84;;;20.93;43.83
40075;BME280;26529;51.530;11.754;2023-03-01T12:55:55;101072.78;;;20.98;43.65
40075;BME280;26529;51.530;11.754;2023-03-01T12:58:32;101069.16;;;20.99;43.68
40075;BME280;26529;51.530;11.754;2023-03-01T13:03:51;101071.81;;;20.99;43.52
40075;BME280;26529;51.530;11.754;2023-03-01T13:06:30;101068.28;;;20.98;43.69
40075;BME280;26529;51.530;11.754;2023-03-01T13:09:04;101064.94;;;20.95;43.60
40075;BME280;26529;51.530;11.754;2023-03-01T13:11:34;101064.19;;;20.93;43.91
40075;BME280;26529;51.530;11.754;2023-03-01T13:16:49;101065.88;;;20.94;43.78
40075;BME280;26529;51.530;11.754;2023-03-01T13:19:20;101069.50;;;20.93;44.17
40075;BME280;26529;51.530;11.754;2023-03-01T13:21:48;101061.44;;;20.94;43.80
40075;BME280;26529;51.530;11.754;2023-03-01T13:24:40;101070.25;;;20.95;43.85
40075;BME280;26529;51.530;11.754;2023-03-01T13:32:30;101063.91;;;20.97;43.55
40075;BME280;26529;51.530;11.754;2023-03-01T13:37:40;101045.91;;;21.01;43.41
40075;BME280;26529;51.530;11.754;2023-03-01T13:42:47;101047.63;;;21.02;43.27
40075;BME280;26529;51.530;11.754;2023-03-01T13:45:43;101048.56;;;21.01;43.57
40075;BME280;26529;51.530;11.754;2023-03-01T13:48:35;101046.00;;;20.99;43.58
40075;BME280;26529;51.530;11.754;2023-03-01T13:51:07;101044.19;;;21.00;43.50
40075;BME280;26529;51.530;11.754;2023-03-01T13:53:36;101043.31;;;20.99;43.50
40075;BME280;26529;51.530;11.754;2023-03-01T13:56:10;101044.41;;;20.81;42.43
40075;BME280;26529;51.530;11.754;2023-03-01T13:58:47;101035.22;;;20.86;42.56
40075;BME280;26529;51.530;11.754;2023-03-01T14:01:24;101041.13;;;20.92;43.14
40075;BME280;26529;51.530;11.754;2023-03-01T14:03:50;101029.44;;;20.94;43.27
40075;BME280;26529;51.530;11.754;2023-03-01T14:06:19;101026.66;;;20.96;43.22
40075;BME280;26529;51.530;11.754;2023-03-01T14:08:47;101026.66;;;20.96;43.21
40075;BME280;26529;51.530;11.754;2023-03-01T14:19:55;101016.00;;;20.96;43.36
40075;BME280;26529;51.530;11.754;2023-03-01T14:22:29;101013.25;;;20.97;43.23